Time;durP1;ratioP1;P1;durP2;ratioP2;P2;SDS_P1;SDS_P2;PMS_P1;PMS_P2;Temp;Humidity;BMP_temperature;BMP_pressure;BME280_temperature;BME280_humidity;BME280_pressure;Samples;Min_cycle;Max_cycle;Signal;HPM_P1;HPM_P2
2023/01/30 00:01:48;;;;;;;23.87;16.00;;;;;;;;;;5016785;28;20237;-72
2023/01/30 00:04:14;;;;;;;24.97;17.03;;;;;;;;;;5017629;28;20190;-72
2023/01/30 00:06:41;;;;;;;24.30;15.70;;;;;;;;;;5016609;28;20330;-72
2023/01/30 00:09:07;;;;;;;24.27;15.87;;;;;;;;;;5017191;28;20190;-72
2023/01/30 00:11:34;;;;;;;23.30;15.97;;;;;;;;;;5015375;28;20180;-72
2023/01/30 00:14:00;;;;;;;23.63;15.77;;;;;;;;;;5018163;28;20677;-73
2023/01/30 00:16:26;;;;;;;22.43;15.33;;;;;;;;;;5013234;28;20301;-72
2023/01/30 00:18:53;;;;;;;24.63;16.47;;;;;;;;;;5016283;28;20183;-72
2023/01/30 00:21:19;;;;;;;24.77;15.93;;;;;;;;;;5014079;28;20223;-72
2023/01/30 00:23:45;;;;;;;26.87;16.40;;;;;;;;;;5016890;28;20696;-72
2023/01/30 00:26:12;;;;;;;26.40;17.13;;;;;;;;;;5016824;28;20290;-73
2023/01/30 00:28:39;;;;;;;24.70;16.77;;;;;;;;;;5015991;28;20186;-72
2023/01/30 00:31:06;;;;;;;25.40;16.27;;;;;;;;;;5016810;28;20194;-73
2023/01/30 00:33:32;;;;;;;28.20;17.20;;;;;;;;;;5015908;28;20249;-73
2023/01/30 00:36:01;;;;;;;26.20;17.20;;;;;;;;;;5015143;28;20233;-71
2023/01/30 00:38:27;;;;;;;22.17;15.63;;;;;;;;;;5018035;28;20225;-72
2023/01/30 00:40:54;;;;;;;25.23;16.87;;;;;;;;;;5006051;28;20191;-72
2023/01/30 00:49:10;;;;;;;23.83;16.20;;;;;;;;;;5007285;28;20201;-72
2023/01/30 00:51:36;;;;;;;23.30;16.10;;;;;;;;;;5015350;28;20230;-72
2023/01/30 00:54:03;;;;;;;24.33;16.40;;;;;;;;;;5016095;28;20259;-72
2023/01/30 00:56:31;;;;;;;33.43;18.67;;;;;;;;;;5031493;28;20206;-72
2023/01/30 00:58:57;;;;;;;25.03;16.30;;;;;;;;;;5015905;28;20190;-72
2023/01/30 01:01:23;;;;;;;27.17;16.40;;;;;;;;;;5017594;28;20183;-72
2023/01/30 01:03:49;;;;;;;24.63;16.53;;;;;;;;;;5016500;28;20172;-72
2023/01/30 01:06:16;;;;;;;25.23;16.50;;;;;;;;;;5016610;28;20313;-71
2023/01/30 01:08:42;;;;;;;31.07;18.50;;;;;;;;;;5016004;28;20388;-72
2023/01/30 01:11:09;;;;;;;26.53;17.33;;;;;;;;;;5017526;28;20669;-72
2023/01/30 01:13:35;;;;;;;24.83;16.73;;;;;;;;;;5015562;28;20205;-72
2023/01/30 01:16:01;;;;;;;26.17;16.47;;;;;;;;;;5014931;28;20344;-72
2023/01/30 01:18:27;;;;;;;25.80;16.67;;;;;;;;;;5018173;28;20260;-72
2023/01/30 01:20:54;;;;;;;24.27;15.93;;;;;;;;;;5014604;28;20657;-71
2023/01/30 01:23:20;;;;;;;23.93;16.13;;;;;;;;;;5012617;28;20241;-71
2023/01/30 01:25:49;;;;;;;27.57;17.87;;;;;;;;;;5038474;28;20618;-72
2023/01/30 01:28:20;;;;;;;24.37;16.37;;;;;;;;;;5015447;28;20198;-72
2023/01/30 01:30:47;;;;;;;25.07;16.40;;;;;;;;;;5015272;28;20270;-72
2023/01/30 01:33:13;;;;;;;27.83;17.80;;;;;;;;;;5014234;28;20541;-72
2023/01/30 01:35:42;;;;;;;25.00;16.73;;;;;;;;;;5017000;28;20491;-71
2023/01/30 01:38:08;;;;;;;24.93;16.53;;;;;;;;;;5016557;28;20674;-72
2023/01/30 01:43:20;;;;;;;27.10;16.83;;;;;;;;;;5016814;28;20666;-71
2023/01/30 01:45:48;;;;;;;25.50;16.17;;;;;;;;;;5012406;28;20582;-72
2023/01/30 01:48:27;;;;;;;25.67;16.57;;;;;;;;;;5016320;28;20663;-71
2023/01/30 01:50:55;;;;;;;29.53;17.77;;;;;;;;;;5039020;28;20201;-72
2023/01/30 01:53:24;;;;;;;29.00;16.30;;;;;;;;;;5013589;28;20250;-72
2023/01/30 01:55:54;;;;;;;25.47;16.27;;;;;;;;;;5013120;28;20234;-71
2023/01/30 01:58:35;;;;;;;27.13;16.03;;;;;;;;;;5001545;28;20188;-71
2023/01/30 02:01:01;;;;;;;27.17;16.10;;;;;;;;;;5016523;28;20182;-72
2023/01/30 02:03:30;;;;;;;28.50;16.57;;;;;;;;;;5016094;28;20182;-71
2023/01/30 02:05:58;;;;;;;22.70;14.53;;;;;;;;;;5014686;28;20290;-72
2023/01/30 02:08:28;;;;;;;27.50;17.10;;;;;;;;;;5013751;28;20186;-71
2023/01/30 02:11:13;;;;;;;27.37;16.83;;;;;;;;;;5015057;28;20187;-71
2023/01/30 02:13:39;;;;;;;26.73;16.33;;;;;;;;;;5013796;28;20647;-72
2023/01/30 02:16:06;;;;;;;25.90;16.27;;;;;;;;;;5015530;28;20210;-71
2023/01/30 02:18:34;;;;;;;28.07;16.83;;;;;;;;;;5015949;28;20183;-72
2023/01/30 02:21:17;;;;;;;26.93;16.80;;;;;;;;;;5015539;28;20558;-71
2023/01/30 02:23:43;;;;;;;27.60;16.00;;;;;;;;;;5014222;28;20178;-72
2023/01/30 02:26:17;;;;;;;26.03;16.53;;;;;;;;;;5016504;28;20210;-71
2023/01/30 02:29:02;;;;;;;22.97;15.57;;;;;;;;;;5018434;28;20191;-71
2023/01/30 02:31:35;;;;;;;25.17;16.30;;;;;;;;;;5015337;28;20231;-71
2023/01/30 02:34:17;;;;;;;24.13;15.33;;;;;;;;;;5015239;28;20202;-72
2023/01/30 02:36:51;;;;;;;25.33;15.60;;;;;;;;;;5015848;28;20871;-72
2023/01/30 02:39:30;;;;;;;25.30;16.33;;;;;;;;;;5018482;28;20178;-72
2023/01/30 02:41:59;;;;;;;25.30;16.57;;;;;;;;;;5018929;28;20210;-72
2023/01/30 02:44:29;;;;;;;25.37;16.00;;;;;;;;;;5018069;28;20263;-72
2023/01/30 02:47:25;;;;;;;25.13;15.63;;;;;;;;;;5018227;28;20182;-72
2023/01/30 02:49:59;;;;;;;26.03;16.10;;;;;;;;;;5006604;28;20573;-71
2023/01/30 02:52:26;;;;;;;24.27;15.10;;;;;;;;;;5016668;28;20304;-72
2023/01/30 02:54:53;;;;;;;24.80;15.63;;;;;;;;;;5019295;28;20214;-71
2023/01/30 02:57:20;;;;;;;26.67;16.10;;;;;;;;;;5018050;28;20178;-72
2023/01/30 02:59:48;;;;;;;26.47;16.43;;;;;;;;;;5020013;28;20179;-71
2023/01/30 03:02:15;;;;;;;23.10;14.97;;;;;;;;;;5022796;28;20187;-71
2023/01/30 03:04:51;;;;;;;22.93;15.10;;;;;;;;;;5015934;28;20183;-72
2023/01/30 03:07:24;;;;;;;25.80;14.77;;;;;;;;;;5039939;28;20190;-72
2023/01/30 03:10:05;;;;;;;26.63;16.23;;;;;;;;;;5017300;28;20183;-72
2023/01/30 03:12:40;;;;;;;25.67;16.07;;;;;;;;;;5022959;28;20206;-72
2023/01/30 03:15:06;;;;;;;24.17;15.70;;;;;;;;;;5019348;28;20214;-72
2023/01/30 03:17:33;;;;;;;23.87;14.73;;;;;;;;;;5018205;28;21661;-72
2023/01/30 03:20:01;;;;;;;21.87;14.07;;;;;;;;;;5016569;28;20193;-72
2023/01/30 03:22:28;;;;;;;26.07;15.30;;;;;;;;;;5018829;28;20190;-71
2023/01/30 03:24:55;;;;;;;24.77;14.97;;;;;;;;;;5015099;28;20214;-72
2023/01/30 03:27:22;;;;;;;23.23;14.53;;;;;;;;;;5015390;28;20186;-72
2023/01/30 03:29:48;;;;;;;26.27;15.73;;;;;;;;;;5037514;28;20236;-72
2023/01/30 03:32:14;;;;;;;25.20;15.67;;;;;;;;;;5017836;28;20678;-72
2023/01/30 03:34:41;;;;;;;28.83;16.33;;;;;;;;;;5020462;28;20582;-71
2023/01/30 03:37:07;;;;;;;26.23;16.37;;;;;;;;;;5013136;28;20293;-71
2023/01/30 03:39:35;;;;;;;28.10;16.97;;;;;;;;;;5015207;28;20666;-72
2023/01/30 03:42:01;;;;;;;26.67;16.17;;;;;;;;;;5014060;28;20191;-72
2023/01/30 03:44:28;;;;;;;28.97;17.17;;;;;;;;;;5014275;28;20506;-72
2023/01/30 03:46:54;;;;;;;26.20;16.93;;;;;;;;;;5014645;28;20296;-72
2023/01/30 03:49:20;;;;;;;29.83;17.03;;;;;;;;;;5016552;28;20193;-71
2023/01/30 03:51:47;;;;;;;26.20;16.20;;;;;;;;;;5014928;28;20210;-71
2023/01/30 03:54:13;;;;;;;26.60;16.27;;;;;;;;;;5019600;28;20211;-71
2023/01/30 03:56:39;;;;;;;26.47;16.67;;;;;;;;;;5015803;28;20236;-72
2023/01/30 03:59:06;;;;;;;27.70;16.93;;;;;;;;;;5017845;28;20182;-72
2023/01/30 04:01:38;;;;;;;28.20;17.37;;;;;;;;;;5015276;28;20361;-72
2023/01/30 04:04:04;;;;;;;26.27;16.23;;;;;;;;;;5022014;28;20214;-71
2023/01/30 04:06:31;;;;;;;26.00;16.00;;;;;;;;;;5017339;28;20210;-72
2023/01/30 04:08:57;;;;;;;25.77;15.90;;;;;;;;;;5015537;28;20538;-73
2023/01/30 04:11:33;;;;;;;28.57;17.30;;;;;;;;;;5013236;28;20760;-73
2023/01/30 04:14:02;;;;;;;26.83;16.93;;;;;;;;;;5031030;28;20606;-72
2023/01/30 04:16:28;;;;;;;28.95;19.48;;;;;;;;;;5017104;28;20917;-72
2023/01/30 04:19:23;;;;;;;27.63;16.77;;;;;;;;;;5016589;28;20187;-71
2023/01/30 04:21:49;;;;;;;26.80;16.20;;;;;;;;;;5000002;28;20186;-72
2023/01/30 04:24:16;;;;;;;26.17;17.20;;;;;;;;;;5019312;28;20560;-72
2023/01/30 04:26:42;;;;;;;35.93;21.57;;;;;;;;;;5015666;28;20619;-72
2023/01/30 04:29:09;;;;;;;30.20;18.00;;;;;;;;;;5016895;28;20189;-70
2023/01/30 04:31:37;;;;;;;30.10;17.63;;;;;;;;;;5015397;28;20191;-72
2023/01/30 04:34:18;;;;;;;25.20;15.80;;;;;;;;;;5015260;28;20211;-71
2023/01/30 04:36:44;;;;;;;27.20;16.53;;;;;;;;;;5015409;28;20289;-71
2023/01/30 04:39:11;;;;;;;28.77;16.77;;;;;;;;;;5016200;28;20178;-71
2023/01/30 04:41:37;;;;;;;28.17;16.07;;;;;;;;;;5016094;28;20183;-71
2023/01/30 04:44:04;;;;;;;28.17;16.90;;;;;;;;;;5015606;28;20186;-72
2023/01/30 04:46:48;;;;;;;27.47;16.97;;;;;;;;;;5015390;28;20317;-71
2023/01/30 04:49:15;;;;;;;26.50;16.27;;;;;;;;;;5015019;28;20632;-71
2023/01/30 04:51:41;;;;;;;27.97;16.23;;;;;;;;;;5015151;28;20182;-71
2023/01/30 04:54:07;;;;;;;28.00;17.17;;;;;;;;;;5015683;28;20249;-71
2023/01/30 04:56:33;;;;;;;27.17;16.83;;;;;;;;;;5015195;28;20570;-71
2023/01/30 04:58:59;;;;;;;26.83;16.40;;;;;;;;;;5016770;28;20811;-71
2023/01/30 05:01:34;;;;;;;25.20;16.00;;;;;;;;;;5013427;28;20257;-71
2023/01/30 05:04:01;;;;;;;26.97;16.47;;;;;;;;;;5017163;28;20187;-71
2023/01/30 05:06:27;;;;;;;25.87;16.47;;;;;;;;;;5016497;28;20217;-71
2023/01/30 05:08:55;;;;;;;27.45;16.88;;;;;;;;;;5015702;28;20516;-71
2023/01/30 05:11:21;;;;;;;26.47;16.13;;;;;;;;;;5015147;28;20758;-71
2023/01/30 05:13:48;;;;;;;28.93;15.43;;;;;;;;;;5016094;28;20214;-71
2023/01/30 05:16:15;;;;;;;28.30;16.27;;;;;;;;;;5018552;28;20198;-71
2023/01/30 05:18:41;;;;;;;24.90;15.37;;;;;;;;;;5014819;28;20183;-72
2023/01/30 05:21:12;;;;;;;25.33;15.50;;;;;;;;;;5015183;28;20588;-71
2023/01/30 05:23:38;;;;;;;25.53;15.27;;;;;;;;;;5017019;28;20217;-71
2023/01/30 05:26:05;;;;;;;25.97;15.37;;;;;;;;;;5015583;28;20206;-72
2023/01/30 05:28:31;;;;;;;26.73;16.57;;;;;;;;;;5014952;28;20191;-72
2023/01/30 05:31:04;;;;;;;27.30;16.50;;;;;;;;;;5014949;28;20567;-72
2023/01/30 05:33:30;;;;;;;25.27;15.23;;;;;;;;;;5015709;28;20210;-72
2023/01/30 05:35:57;;;;;;;25.50;15.33;;;;;;;;;;5015182;28;20226;-73
2023/01/30 05:38:23;;;;;;;26.77;15.30;;;;;;;;;;5018293;28;20265;-74
2023/01/30 05:41:06;;;;;;;25.47;14.73;;;;;;;;;;5016326;28;20258;-73
2023/01/30 05:43:33;;;;;;;25.17;14.43;;;;;;;;;;5016293;28;20269;-73
2023/01/30 05:46:00;;;;;;;24.60;15.25;;;;;;;;;;5014260;28;20814;-73
2023/01/30 05:48:27;;;;;;;26.63;14.63;;;;;;;;;;5016713;28;20591;-72
2023/01/30 05:50:54;;;;;;;24.13;13.77;;;;;;;;;;5016204;28;20178;-72
2023/01/30 05:53:21;;;;;;;24.52;16.27;;;;;;;;;;5015414;28;20512;-73
2023/01/30 05:55:54;;;;;;;21.83;14.50;;;;;;;;;;5015409;28;20229;-72
2023/01/30 05:58:20;;;;;;;22.87;13.97;;;;;;;;;;5015146;28;20175;-72
2023/01/30 06:00:46;;;;;;;22.30;13.90;;;;;;;;;;5013234;28;20460;-72
2023/01/30 06:03:12;;;;;;;22.93;13.87;;;;;;;;;;5015094;28;20185;-71
2023/01/30 06:05:38;;;;;;;20.90;13.07;;;;;;;;;;5016245;28;21169;-72
2023/01/30 06:08:04;;;;;;;21.57;13.80;;;;;;;;;;5014536;28;20189;-72
2023/01/30 06:10:31;;;;;;;23.10;13.77;;;;;;;;;;5015595;28;20313;-72
2023/01/30 06:12:57;;;;;;;23.13;13.83;;;;;;;;;;5016238;28;20210;-72
2023/01/30 06:15:23;;;;;;;23.50;14.53;;;;;;;;;;5019312;28;20712;-72
2023/01/30 06:17:49;;;;;;;22.10;13.23;;;;;;;;;;5017417;28;20215;-73
2023/01/30 06:20:16;;;;;;;22.20;13.47;;;;;;;;;;5019613;28;20189;-73
2023/01/30 06:22:42;;;;;;;22.67;14.30;;;;;;;;;;5019159;28;20281;-74
2023/01/30 06:25:08;;;;;;;22.52;16.00;;;;;;;;;;5015515;28;20433;-74
2023/01/30 06:27:35;;;;;;;23.47;14.37;;;;;;;;;;5018343;28;20217;-73
2023/01/30 06:30:01;;;;;;;21.67;13.67;;;;;;;;;;5019014;28;20569;-75
2023/01/30 06:32:27;;;;;;;22.57;13.63;;;;;;;;;;5018947;28;20377;-74
2023/01/30 06:34:53;;;;;;;20.30;12.83;;;;;;;;;;5018419;28;20563;-75
2023/01/30 06:37:19;;;;;;;22.70;13.67;;;;;;;;;;5018614;28;20240;-74
2023/01/30 06:39:45;;;;;;;21.73;13.63;;;;;;;;;;5020179;28;20630;-73
2023/01/30 06:42:12;;;;;;;24.53;14.13;;;;;;;;;;5018161;28;20180;-72
2023/01/30 06:44:38;;;;;;;20.88;13.90;;;;;;;;;;5018852;28;20486;-74
2023/01/30 06:47:04;;;;;;;21.53;12.57;;;;;;;;;;5019105;28;20190;-73
2023/01/30 06:49:30;;;;;;;21.85;14.40;;;;;;;;;;5018412;28;20418;-71
2023/01/30 06:51:56;;;;;;;20.02;14.60;;;;;;;;;;5018507;28;20435;-72
2023/01/30 06:54:22;;;;;;;20.65;13.75;;;;;;;;;;5017387;28;20454;-71
2023/01/30 06:56:49;;;;;;;17.77;12.57;;;;;;;;;;5020868;28;20220;-71
2023/01/30 06:59:15;;;;;;;20.90;12.60;;;;;;;;;;5018311;28;20187;-72
2023/01/30 07:01:41;;;;;;;19.50;12.03;;;;;;;;;;5018679;28;20183;-71
2023/01/30 07:04:07;;;;;;;18.70;11.93;;;;;;;;;;5017861;28;20202;-71
2023/01/30 07:06:33;;;;;;;20.67;12.17;;;;;;;;;;5020501;28;20221;-72
2023/01/30 07:08:59;;;;;;;20.03;12.47;;;;;;;;;;5000606;28;20614;-71
2023/01/30 07:11:26;;;;;;;19.07;12.13;;;;;;;;;;5017893;28;20179;-71
2023/01/30 07:13:52;;;;;;;20.87;12.80;;;;;;;;;;5018829;28;20702;-71
2023/01/30 07:16:18;;;;;;;18.87;12.77;;;;;;;;;;5018171;28;20603;-71
2023/01/30 07:18:44;;;;;;;19.77;12.70;;;;;;;;;;5019357;28;20183;-71
2023/01/30 07:21:10;;;;;;;19.53;12.67;;;;;;;;;;5017975;28;20179;-71
2023/01/30 07:23:37;;;;;;;21.33;13.23;;;;;;;;;;5018489;28;20264;-71
2023/01/30 07:26:05;;;;;;;18.80;11.87;;;;;;;;;;5017124;28;20520;-71
2023/01/30 07:28:32;;;;;;;20.80;12.33;;;;;;;;;;5017937;28;20194;-71
2023/01/30 07:31:01;;;;;;;19.87;11.73;;;;;;;;;;5018830;28;20199;-71
2023/01/30 07:33:27;;;;;;;19.47;12.93;;;;;;;;;;5017977;28;20224;-71
2023/01/30 07:35:53;;;;;;;19.90;12.30;;;;;;;;;;5016365;28;20190;-71
2023/01/30 07:38:19;;;;;;;18.47;12.50;;;;;;;;;;5017777;28;20674;-71
2023/01/30 07:40:45;;;;;;;18.10;11.97;;;;;;;;;;5018512;28;20178;-74
2023/01/30 07:43:12;;;;;;;17.53;11.57;;;;;;;;;;5017513;28;20613;-71
2023/01/30 07:45:42;;;;;;;19.10;12.47;;;;;;;;;;5019163;28;20199;-72
2023/01/30 07:48:10;;;;;;;16.57;11.60;;;;;;;;;;5018732;28;20193;-71
2023/01/30 07:50:36;;;;;;;19.80;12.07;;;;;;;;;;5016961;28;20593;-71
2023/01/30 07:53:03;;;;;;;17.83;11.70;;;;;;;;;;5017466;28;20206;-71
2023/01/30 07:55:29;;;;;;;18.83;12.33;;;;;;;;;;5017307;28;20213;-71
2023/01/30 07:57:56;;;;;;;18.63;12.17;;;;;;;;;;5015744;28;20653;-71
2023/01/30 08:00:22;;;;;;;18.43;12.17;;;;;;;;;;5017060;28;20853;-71
2023/01/30 08:02:48;;;;;;;18.17;11.83;;;;;;;;;;5019013;28;20191;-71
2023/01/30 08:05:15;;;;;;;19.70;12.73;;;;;;;;;;5018240;28;20490;-71
2023/01/30 08:07:41;;;;;;;19.40;12.50;;;;;;;;;;5015653;28;20190;-71
2023/01/30 08:10:08;;;;;;;17.60;12.07;;;;;;;;;;5018895;28;20192;-71
2023/01/30 08:12:34;;;;;;;17.53;11.93;;;;;;;;;;5016272;28;20194;-71
2023/01/30 08:15:00;;;;;;;18.37;12.13;;;;;;;;;;5017658;28;20226;-71
2023/01/30 08:17:26;;;;;;;19.33;12.53;;;;;;;;;;5015950;28;20182;-71
2023/01/30 08:19:52;;;;;;;18.57;12.53;;;;;;;;;;5016343;28;20230;-71
2023/01/30 08:22:18;;;;;;;20.20;12.10;;;;;;;;;;5018298;28;20182;-71
2023/01/30 08:24:45;;;;;;;19.20;12.53;;;;;;;;;;5016208;28;20179;-71
2023/01/30 08:27:11;;;;;;;19.23;12.73;;;;;;;;;;5016779;28;20690;-71
2023/01/30 08:29:37;;;;;;;19.53;13.20;;;;;;;;;;5017023;28;20194;-71
2023/01/30 08:32:03;;;;;;;19.73;13.07;;;;;;;;;;5015646;28;20207;-71
2023/01/30 08:34:29;;;;;;;19.73;12.97;;;;;;;;;;5015776;28;20619;-71
2023/01/30 08:36:56;;;;;;;22.37;13.17;;;;;;;;;;5015881;28;20249;-71
2023/01/30 08:39:22;;;;;;;18.00;12.13;;;;;;;;;;5018734;28;20274;-71
2023/01/30 08:41:48;;;;;;;20.27;13.33;;;;;;;;;;5017867;28;20187;-73
2023/01/30 08:44:14;;;;;;;20.10;13.73;;;;;;;;;;5016870;28;20729;-71
2023/01/30 08:46:40;;;;;;;19.67;13.07;;;;;;;;;;5015885;28;20211;-71
2023/01/30 08:49:07;;;;;;;19.70;13.03;;;;;;;;;;5016729;28;20269;-71
2023/01/30 08:51:33;;;;;;;18.77;12.43;;;;;;;;;;5017217;28;20678;-72
2023/01/30 08:53:59;;;;;;;19.23;13.20;;;;;;;;;;5016516;28;20261;-71
2023/01/30 08:56:25;;;;;;;18.50;12.27;;;;;;;;;;5016152;28;21164;-71
2023/01/30 08:58:51;;;;;;;20.90;13.53;;;;;;;;;;5016148;28;20617;-74
2023/01/30 09:01:17;;;;;;;21.23;13.77;;;;;;;;;;5013299;28;20225;-71
2023/01/30 09:03:43;;;;;;;19.90;12.87;;;;;;;;;;5016083;28;20244;-71
2023/01/30 09:06:10;;;;;;;21.70;14.03;;;;;;;;;;5017526;28;20218;-72
2023/01/30 09:08:36;;;;;;;17.80;12.57;;;;;;;;;;5018152;28;20190;-72
2023/01/30 09:11:03;;;;;;;19.47;12.97;;;;;;;;;;5015599;28;20210;-71
2023/01/30 09:13:30;;;;;;;17.93;12.60;;;;;;;;;;5018585;28;20199;-72
2023/01/30 09:15:57;;;;;;;18.67;12.90;;;;;;;;;;5016781;28;20573;-71
2023/01/30 09:18:23;;;;;;;19.07;13.07;;;;;;;;;;5015852;28;20190;-71
2023/01/30 09:20:50;;;;;;;20.97;13.73;;;;;;;;;;5016606;28;20244;-71
2023/01/30 09:23:16;;;;;;;17.70;13.03;;;;;;;;;;5017404;28;20218;-71
2023/01/30 09:25:46;;;;;;;19.60;12.27;;;;;;;;;;5015590;28;20203;-71
2023/01/30 09:28:12;;;;;;;19.70;12.97;;;;;;;;;;5015325;28;20178;-71
2023/01/30 09:30:38;;;;;;;19.17;12.87;;;;;;;;;;5015321;28;20206;-71
2023/01/30 09:33:04;;;;;;;17.47;12.23;;;;;;;;;;5016225;28;20959;-71
2023/01/30 09:35:30;;;;;;;16.33;11.53;;;;;;;;;;5014644;28;20203;-71
2023/01/30 09:37:57;;;;;;;18.87;12.30;;;;;;;;;;5013873;28;20493;-71
2023/01/30 09:40:26;;;;;;;20.17;11.80;;;;;;;;;;5015388;28;20182;-71
2023/01/30 09:42:59;;;;;;;19.63;13.23;;;;;;;;;;5014641;28;20216;-71
2023/01/30 09:45:32;;;;;;;16.57;11.97;;;;;;;;;;5014675;28;20210;-71
2023/01/30 09:48:17;;;;;;;17.50;12.40;;;;;;;;;;5015008;28;20191;-72
2023/01/30 09:50:56;;;;;;;19.03;12.53;;;;;;;;;;5017477;28;20710;-71
2023/01/30 09:53:36;;;;;;;17.93;11.87;;;;;;;;;;5018662;28;20302;-72
2023/01/30 09:56:03;;;;;;;17.70;11.80;;;;;;;;;;5018973;28;20197;-72
2023/01/30 09:58:41;;;;;;;17.70;11.67;;;;;;;;;;5019132;28;20187;-73
2023/01/30 10:01:11;;;;;;;15.80;11.33;;;;;;;;;;5018526;28;20174;-72
2023/01/30 10:03:47;;;;;;;16.83;11.20;;;;;;;;;;5020185;28;20218;-73
2023/01/30 10:06:14;;;;;;;16.80;11.93;;;;;;;;;;5017685;28;20206;-73
2023/01/30 10:08:45;;;;;;;16.37;11.27;;;;;;;;;;5018351;28;20260;-73
2023/01/30 10:11:30;;;;;;;18.43;11.93;;;;;;;;;;5018253;28;20190;-72
2023/01/30 10:14:02;;;;;;;18.87;11.30;;;;;;;;;;5019535;28;20927;-75
2023/01/30 10:16:54;;;;;;;19.53;12.20;;;;;;;;;;5019109;28;20234;-72
2023/01/30 10:19:24;;;;;;;14.87;10.97;;;;;;;;;;5021244;28;20193;-71
2023/01/30 10:21:57;;;;;;;16.40;10.83;;;;;;;;;;5019575;28;20325;-72
2023/01/30 10:24:26;;;;;;;17.27;11.60;;;;;;;;;;5019278;28;20226;-73
2023/01/30 10:26:53;;;;;;;17.50;11.93;;;;;;;;;;5020819;28;20686;-72
2023/01/30 10:29:33;;;;;;;15.10;10.70;;;;;;;;;;5020242;28;20218;-72
2023/01/30 10:32:07;;;;;;;15.10;10.63;;;;;;;;;;5019828;28;20190;-72
2023/01/30 10:34:44;;;;;;;16.33;10.23;;;;;;;;;;5021011;28;20206;-72
2023/01/30 10:37:29;;;;;;;17.20;11.27;;;;;;;;;;5019508;28;20265;-73
2023/01/30 10:39:59;;;;;;;14.77;10.30;;;;;;;;;;5018928;28;20469;-72
2023/01/30 10:42:31;;;;;;;14.47;9.93;;;;;;;;;;5017888;28;20191;-73
2023/01/30 10:45:05;;;;;;;13.13;9.53;;;;;;;;;;5019200;28;20207;-72
2023/01/30 10:47:40;;;;;;;13.63;9.13;;;;;;;;;;5017566;28;20649;-72
2023/01/30 10:50:17;;;;;;;14.97;9.70;;;;;;;;;;5001116;28;20212;-72
2023/01/30 10:52:46;;;;;;;15.27;9.57;;;;;;;;;;5017034;28;20214;-73
2023/01/30 10:55:19;;;;;;;13.00;9.60;;;;;;;;;;5022639;28;20785;-72
2023/01/30 10:57:53;;;;;;;13.60;9.73;;;;;;;;;;5018870;28;20187;-72
2023/01/30 11:00:23;;;;;;;13.20;9.23;;;;;;;;;;5017191;28;20274;-72
2023/01/30 11:03:15;;;;;;;12.67;9.30;;;;;;;;;;5017922;28;20207;-72
2023/01/30 11:05:41;;;;;;;13.77;9.17;;;;;;;;;;5016672;28;20264;-72
2023/01/30 11:08:27;;;;;;;14.40;9.50;;;;;;;;;;5017176;28;20283;-72
2023/01/30 11:10:53;;;;;;;13.50;9.77;;;;;;;;;;5020001;28;20281;-72
2023/01/30 11:13:23;;;;;;;13.10;10.20;;;;;;;;;;5017782;28;20211;-72
2023/01/30 11:15:52;;;;;;;13.70;9.57;;;;;;;;;;5017081;28;20297;-72
2023/01/30 11:18:19;;;;;;;14.13;9.53;;;;;;;;;;5017566;28;20215;-72
2023/01/30 11:20:51;;;;;;;14.13;9.63;;;;;;;;;;5018295;28;20265;-72
2023/01/30 11:23:24;;;;;;;12.17;9.10;;;;;;;;;;5017204;28;20191;-72
2023/01/30 11:25:51;;;;;;;13.80;9.87;;;;;;;;;;5017676;28;20272;-72
2023/01/30 11:28:18;;;;;;;11.20;8.40;;;;;;;;;;5020098;28;20194;-72
2023/01/30 11:30:49;;;;;;;12.33;9.53;;;;;;;;;;5017661;28;20244;-73
2023/01/30 11:33:16;;;;;;;11.33;8.13;;;;;;;;;;5017336;28;20687;-73
2023/01/30 11:35:54;;;;;;;10.00;7.87;;;;;;;;;;5019502;28;20207;-72
2023/01/30 11:38:22;;;;;;;10.53;6.80;;;;;;;;;;5018604;28;20174;-72
2023/01/30 11:40:48;;;;;;;12.33;6.50;;;;;;;;;;5017471;28;20186;-73
2023/01/30 11:43:14;;;;;;;7.97;6.30;;;;;;;;;;5017339;28;20308;-72
2023/01/30 11:45:42;;;;;;;8.40;5.80;;;;;;;;;;5017658;28;20256;-72
2023/01/30 11:48:19;;;;;;;7.77;6.00;;;;;;;;;;5017138;28;20191;-73
2023/01/30 11:50:48;;;;;;;7.70;5.73;;;;;;;;;;5015616;28;20716;-71
2023/01/30 11:53:47;;;;;;;6.70;5.50;;;;;;;;;;5018080;28;20214;-74
2023/01/30 11:56:24;;;;;;;7.07;5.40;;;;;;;;;;4995407;28;20242;-73
2023/01/30 11:58:57;;;;;;;7.77;5.87;;;;;;;;;;5017215;28;20735;-73
2023/01/30 12:01:31;;;;;;;7.70;5.27;;;;;;;;;;5016326;28;20662;-73
2023/01/30 12:03:58;;;;;;;6.77;5.20;;;;;;;;;;5016706;28;20658;-72
2023/01/30 12:06:35;;;;;;;8.13;5.63;;;;;;;;;;5017311;28;20214;-74
2023/01/30 12:09:01;;;;;;;7.73;5.57;;;;;;;;;;5015979;28;20190;-74
2023/01/30 12:11:29;;;;;;;7.63;5.50;;;;;;;;;;5017754;28;20187;-76
2023/01/30 12:14:12;;;;;;;9.27;6.10;;;;;;;;;;5016181;28;20297;-76
2023/01/30 12:16:55;;;;;;;7.07;5.00;;;;;;;;;;5016385;28;20209;-75
2023/01/30 12:19:40;;;;;;;6.67;5.47;;;;;;;;;;5018302;28;20175;-75
2023/01/30 12:22:20;;;;;;;8.37;6.00;;;;;;;;;;5015972;28;20174;-75
2023/01/30 12:24:52;;;;;;;6.93;5.40;;;;;;;;;;5015152;28;20189;-73
2023/01/30 12:27:27;;;;;;;8.17;5.90;;;;;;;;;;5016657;28;20420;-73
2023/01/30 12:30:03;;;;;;;9.27;6.43;;;;;;;;;;5016360;28;20189;-72
2023/01/30 12:32:31;;;;;;;11.27;7.40;;;;;;;;;;5016389;28;20269;-73
2023/01/30 12:34:57;;;;;;;9.47;6.43;;;;;;;;;;5017250;28;20202;-72
2023/01/30 12:37:37;;;;;;;9.43;6.20;;;;;;;;;;5013630;28;20706;-73
2023/01/30 12:40:11;;;;;;;9.17;6.13;;;;;;;;;;5015059;28;20565;-73
2023/01/30 12:42:56;;;;;;;6.03;4.60;;;;;;;;;;5016893;28;20212;-73
2023/01/30 12:45:23;;;;;;;5.63;4.47;;;;;;;;;;5016258;28;20194;-73
2023/01/30 12:48:11;;;;;;;5.20;4.13;;;;;;;;;;5016265;28;20166;-73
2023/01/30 12:50:40;;;;;;;4.40;3.87;;;;;;;;;;5017144;28;20183;-72
2023/01/30 12:53:15;;;;;;;5.07;3.87;;;;;;;;;;5015756;28;20203;-73
2023/01/30 12:55:48;;;;;;;4.40;3.60;;;;;;;;;;5017574;28;20241;-72
2023/01/30 12:58:27;;;;;;;4.37;3.83;;;;;;;;;;5017713;28;20277;-73
2023/01/30 13:01:06;;;;;;;6.90;4.17;;;;;;;;;;5016234;28;20179;-73
2023/01/30 13:03:35;;;;;;;4.70;4.07;;;;;;;;;;5017911;28;20587;-73
2023/01/30 13:06:10;;;;;;;4.37;3.83;;;;;;;;;;5015551;28;20711;-73
2023/01/30 13:08:55;;;;;;;4.93;4.20;;;;;;;;;;5017231;28;20227;-73
2023/01/30 13:11:41;;;;;;;5.33;4.50;;;;;;;;;;5017087;28;20193;-72
2023/01/30 13:14:29;;;;;;;5.43;4.10;;;;;;;;;;5015634;28;20212;-73
2023/01/30 13:17:13;;;;;;;5.00;4.30;;;;;;;;;;5016804;28;21012;-72
2023/01/30 13:19:59;;;;;;;5.30;4.30;;;;;;;;;;5016009;28;20193;-73
2023/01/30 13:22:37;;;;;;;7.00;4.37;;;;;;;;;;4989063;28;20202;-73
2023/01/30 13:25:24;;;;;;;4.80;4.30;;;;;;;;;;5017171;28;20215;-73
2023/01/30 13:27:55;;;;;;;5.30;4.30;;;;;;;;;;4979999;28;20226;-73
2023/01/30 13:30:25;;;;;;;5.50;4.13;;;;;;;;;;5016445;28;20190;-73
2023/01/30 13:32:55;;;;;;;6.60;4.27;;;;;;;;;;5014414;28;20233;-71
2023/01/30 13:35:23;;;;;;;5.67;4.40;;;;;;;;;;5014760;28;20211;-71
2023/01/30 13:37:50;;;;;;;6.50;5.30;;;;;;;;;;5015058;28;20713;-73
2023/01/30 13:40:25;;;;;;;5.10;4.40;;;;;;;;;;5015754;28;20191;-73
2023/01/30 13:43:05;;;;;;;5.27;4.70;;;;;;;;;;5014131;28;20616;-71
2023/01/30 13:45:34;;;;;;;4.83;4.33;;;;;;;;;;5016515;28;20574;-71
2023/01/30 13:48:09;;;;;;;5.60;4.77;;;;;;;;;;5015305;28;20245;-71
2023/01/30 13:50:53;;;;;;;6.53;4.57;;;;;;;;;;5015444;28;20567;-71
2023/01/30 13:53:29;;;;;;;5.87;5.23;;;;;;;;;;5016016;28;20214;-71
2023/01/30 13:55:55;;;;;;;7.50;5.00;;;;;;;;;;5014723;28;20614;-71
2023/01/30 13:58:42;;;;;;;5.90;5.10;;;;;;;;;;5016046;28;20677;-71
2023/01/30 14:01:10;;;;;;;6.17;4.97;;;;;;;;;;5015904;28;20198;-72
2023/01/30 14:03:36;;;;;;;7.37;5.30;;;;;;;;;;5016020;28;20193;-71
2023/01/30 14:06:05;;;;;;;6.23;5.53;;;;;;;;;;5015574;28;20207;-72
2023/01/30 14:09:00;;;;;;;6.73;5.17;;;;;;;;;;5015339;28;20187;-72
2023/01/30 14:11:29;;;;;;;6.03;4.67;;;;;;;;;;5012721;28;20609;-71
2023/01/30 14:14:00;;;;;;;6.37;5.47;;;;;;;;;;5014317;28;20206;-70
2023/01/30 14:16:39;;;;;;;7.30;6.37;;;;;;;;;;5014985;28;20194;-72
2023/01/30 14:19:24;;;;;;;8.30;6.27;;;;;;;;;;5018245;28;20198;-72
2023/01/30 14:21:54;;;;;;;8.00;5.27;;;;;;;;;;5015969;28;20186;-72
2023/01/30 14:24:23;;;;;;;8.17;6.07;;;;;;;;;;5014787;28;20191;-72
2023/01/30 14:26:49;;;;;;;10.27;6.20;;;;;;;;;;5016189;28;20204;-72
2023/01/30 14:29:35;;;;;;;7.10;5.20;;;;;;;;;;5014917;28;20191;-72
2023/01/30 14:32:01;;;;;;;6.80;5.27;;;;;;;;;;5014346;28;20187;-72
2023/01/30 14:34:38;;;;;;;7.03;5.20;;;;;;;;;;5012219;28;20211;-72
2023/01/30 14:37:24;;;;;;;6.33;5.03;;;;;;;;;;5016152;28;20170;-72
2023/01/30 14:39:52;;;;;;;6.63;5.30;;;;;;;;;;5014303;28;20186;-72
2023/01/30 14:42:21;;;;;;;8.80;5.63;;;;;;;;;;5017867;28;20186;-72
2023/01/30 14:45:14;;;;;;;6.20;4.37;;;;;;;;;;5018846;28;20658;-72
2023/01/30 14:47:41;;;;;;;5.87;4.87;;;;;;;;;;5018302;28;20179;-72
2023/01/30 14:50:19;;;;;;;7.20;4.67;;;;;;;;;;5018814;28;20315;-71